sensor_id;sensor_type;location;lat;lon;timestamp;temperature;humidity
59015;DHT22;44799;53.382;14.666;2023-03-17T00:02:54;20.00;72.60
59015;DHT22;44799;53.382;14.666;2023-03-17T00:07:47;20.00;72.60
59015;DHT22;44799;53.382;14.666;2023-03-17T00:10:19;20.00;72.60
59015;DHT22;44799;53.382;14.666;2023-03-17T00:12:47;20.00;65.60
59015;DHT22;44799;53.382;14.666;2023-03-17T00:15:13;20.20;72.90
59015;DHT22;44799;53.382;14.666;2023-03-17T00:17:39;19.90;72.80
59015;DHT22;44799;53.382;14.666;2023-03-17T00:22:31;20.00;72.90
59015;DHT22;44799;53.382;14.666;2023-03-17T00:24:56;20.30;73.00
59015;DHT22;44799;53.382;14.666;2023-03-17T00:27:22;20.10;73.10
59015;DHT22;44799;53.382;14.666;2023-03-17T00:32:15;20.20;73.30
59015;DHT22;44799;53.382;14.666;2023-03-17T00:34:41;20.30;72.90
59015;DHT22;44799;53.382;14.666;2023-03-17T00:37:09;20.00;72.90
59015;DHT22;44799;53.382;14.666;2023-03-17T00:42:01;20.20;71.40
59015;DHT22;44799;53.382;14.666;2023-03-17T00:44:27;20.10;73.30
59015;DHT22;44799;53.382;14.666;2023-03-17T00:49:20;19.80;73.30
59015;DHT22;44799;53.382;14.666;2023-03-17T00:51:46;19.80;73.20
59015;DHT22;44799;53.382;14.666;2023-03-17T00:54:12;20.30;73.60
59015;DHT22;44799;53.382;14.666;2023-03-17T01:01:30;20.40;73.80
59015;DHT22;44799;53.382;14.666;2023-03-17T01:03:56;20.30;72.30
59015;DHT22;44799;53.382;14.666;2023-03-17T01:06:21;19.80;71.10
59015;DHT22;44799;53.382;14.666;2023-03-17T01:08:47;20.00;73.60
59015;DHT22;44799;53.382;14.666;2023-03-17T01:11:17;20.30;73.80
59015;DHT22;44799;53.382;14.666;2023-03-17T01:13:43;19.80;73.60
59015;DHT22;44799;53.382;14.666;2023-03-17T01:16:09;19.50;73.50
59015;DHT22;44799;53.382;14.666;2023-03-17T01:18:35;20.20;73.90
59015;DHT22;44799;53.382;14.666;2023-03-17T01:23:27;20.00;73.80
59015;DHT22;44799;53.382;14.666;2023-03-17T01:25:52;19.80;73.70
59015;DHT22;44799;53.382;14.666;2023-03-17T01:28:18;20.20;74.00
59015;DHT22;44799;53.382;14.666;2023-03-17T01:30:44;20.10;73.90
59015;DHT22;44799;53.382;14.666;2023-03-17T01:33:11;19.30;72.00
59015;DHT22;44799;53.382;14.666;2023-03-17T01:35:37;20.00;73.60
59015;DHT22;44799;53.382;14.666;2023-03-17T01:38:03;20.20;73.10
59015;DHT22;44799;53.382;14.666;2023-03-17T01:48:06;20.00;73.90
59015;DHT22;44799;53.382;14.666;2023-03-17T01:50:33;19.90;74.00
59015;DHT22;44799;53.382;14.666;2023-03-17T01:52:59;20.10;73.80
59015;DHT22;44799;53.382;14.666;2023-03-17T01:55:24;20.10;73.80
59015;DHT22;44799;53.382;14.666;2023-03-17T01:57:50;19.70;73.50
59015;DHT22;44799;53.382;14.666;2023-03-17T02:02:45;19.80;73.60
59015;DHT22;44799;53.382;14.666;2023-03-17T02:07:37;20.10;73.70
59015;DHT22;44799;53.382;14.666;2023-03-17T02:10:04;19.80;73.60
59015;DHT22;44799;53.382;14.666;2023-03-17T02:12:30;20.10;73.70
59015;DHT22;44799;53.382;14.666;2023-03-17T02:14:56;20.60;74.30
59015;DHT22;44799;53.382;14.666;2023-03-17T02:17:23;20.30;72.50
59015;DHT22;44799;53.382;14.666;2023-03-17T02:19:48;20.10;73.90
59015;DHT22;44799;53.382;14.666;2023-03-17T02:22:15;20.00;73.80
59015;DHT22;44799;53.382;14.666;2023-03-17T02:24:45;20.00;73.60
59015;DHT22;44799;53.382;14.666;2023-03-17T02:29:38;20.20;74.00
59015;DHT22;44799;53.382;14.666;2023-03-17T02:39:23;19.90;73.90
59015;DHT22;44799;53.382;14.666;2023-03-17T02:41:48;19.70;73.90
59015;DHT22;44799;53.382;14.666;2023-03-17T02:44:14;20.00;73.90
59015;DHT22;44799;53.382;14.666;2023-03-17T02:46:40;20.20;74.10
59015;DHT22;44799;53.382;14.666;2023-03-17T02:49:06;20.00;71.50
59015;DHT22;44799;53.382;14.666;2023-03-17T02:51:32;20.00;74.00
59015;DHT22;44799;53.382;14.666;2023-03-17T02:53:58;19.70;74.00
59015;DHT22;44799;53.382;14.666;2023-03-17T02:56:23;20.00;73.90
59015;DHT22;44799;53.382;14.666;2023-03-17T02:58:49;19.70;73.70
59015;DHT22;44799;53.382;14.666;2023-03-17T03:03:41;19.70;73.90
59015;DHT22;44799;53.382;14.666;2023-03-17T03:06:07;19.90;74.20
59015;DHT22;44799;53.382;14.666;2023-03-17T03:08:33;20.30;74.90
59015;DHT22;44799;53.382;14.666;2023-03-17T03:10:58;20.10;74.60
59015;DHT22;44799;53.382;14.666;2023-03-17T03:15:52;20.00;74.80
59015;DHT22;44799;53.382;14.666;2023-03-17T03:20:44;20.70;75.20
59015;DHT22;44799;53.382;14.666;2023-03-17T03:25:37;20.50;75.10
59015;DHT22;44799;53.382;14.666;2023-03-17T03:28:06;21.00;75.90
59015;DHT22;44799;53.382;14.666;2023-03-17T03:32:58;19.40;75.00
59015;DHT22;44799;53.382;14.666;2023-03-17T03:35:24;21.00;75.70
59015;DHT22;44799;53.382;14.666;2023-03-17T03:40:15;20.80;75.90
59015;DHT22;44799;53.382;14.666;2023-03-17T03:45:07;20.30;75.10
59015;DHT22;44799;53.382;14.666;2023-03-17T03:49:59;20.20;75.40
59015;DHT22;44799;53.382;14.666;2023-03-17T03:52:25;20.70;75.90
59015;DHT22;44799;53.382;14.666;2023-03-17T03:57:16;20.20;71.40
59015;DHT22;44799;53.382;14.666;2023-03-17T03:59:42;20.00;74.70
59015;DHT22;44799;53.382;14.666;2023-03-17T04:02:08;20.10;75.10
59015;DHT22;44799;53.382;14.666;2023-03-17T04:04:33;20.60;75.80
59015;DHT22;44799;53.382;14.666;2023-03-17T04:06:59;20.70;75.80
59015;DHT22;44799;53.382;14.666;2023-03-17T04:14:17;19.80;75.20
59015;DHT22;44799;53.382;14.666;2023-03-17T04:16:43;20.10;75.60
59015;DHT22;44799;53.382;14.666;2023-03-17T04:19:09;18.90;75.30
59015;DHT22;44799;53.382;14.666;2023-03-17T04:21:35;20.10;75.60
59015;DHT22;44799;53.382;14.666;2023-03-17T04:26:29;20.40;75.80
59015;DHT22;44799;53.382;14.666;2023-03-17T04:28:55;20.00;75.30
59015;DHT22;44799;53.382;14.666;2023-03-17T04:33:47;20.20;75.70
59015;DHT22;44799;53.382;14.666;2023-03-17T04:36:15;20.90;76.00
59015;DHT22;44799;53.382;14.666;2023-03-17T04:38:41;20.60;75.50
59015;DHT22;44799;53.382;14.666;2023-03-17T04:41:07;20.70;76.10
59015;DHT22;44799;53.382;14.666;2023-03-17T04:43:32;21.20;76.00
59015;DHT22;44799;53.382;14.666;2023-03-17T04:55:43;20.90;75.00
59015;DHT22;44799;53.382;14.666;2023-03-17T04:58:09;20.30;74.20
59015;DHT22;44799;53.382;14.666;2023-03-17T05:00:35;20.60;74.50
59015;DHT22;44799;53.382;14.666;2023-03-17T05:05:29;20.60;74.50
59015;DHT22;44799;53.382;14.666;2023-03-17T05:07:55;19.90;74.00
59015;DHT22;44799;53.382;14.666;2023-03-17T05:15:12;20.90;74.70
59015;DHT22;44799;53.382;14.666;2023-03-17T05:17:38;19.80;74.40
59015;DHT22;44799;53.382;14.666;2023-03-17T05:20:04;20.60;75.00
59015;DHT22;44799;53.382;14.666;2023-03-17T05:22:30;20.70;74.50
59015;DHT22;44799;53.382;14.666;2023-03-17T05:24:55;20.30;74.50
59015;DHT22;44799;53.382;14.666;2023-03-17T05:29:47;18.30;73.50
59015;DHT22;44799;53.382;14.666;2023-03-17T05:32:13;19.70;74.20
59015;DHT22;44799;53.382;14.666;2023-03-17T05:34:38;21.20;74.90
59015;DHT22;44799;53.382;14.666;2023-03-17T05:37:04;20.30;74.90
59015;DHT22;44799;53.382;14.666;2023-03-17T05:39:30;21.50;72.30
59015;DHT22;44799;53.382;14.666;2023-03-17T05:41:56;20.30;74.90
59015;DHT22;44799;53.382;14.666;2023-03-17T05:44:22;21.70;75.40
59015;DHT22;44799;53.382;14.666;2023-03-17T05:46:47;21.10;74.80
59015;DHT22;44799;53.382;14.666;2023-03-17T05:49:13;20.50;74.80
59015;DHT22;44799;53.382;14.666;2023-03-17T05:51:39;20.70;74.70
59015;DHT22;44799;53.382;14.666;2023-03-17T05:54:06;21.10;73.20
59015;DHT22;44799;53.382;14.666;2023-03-17T05:56:33;19.60;74.10
59015;DHT22;44799;53.382;14.666;2023-03-17T05:58:59;20.60;74.70
59015;DHT22;44799;53.382;14.666;2023-03-17T06:01:25;20.30;74.50
59015;DHT22;44799;53.382;14.666;2023-03-17T06:03:51;19.60;74.80
59015;DHT22;44799;53.382;14.666;2023-03-17T06:06:17;20.70;72.70
59015;DHT22;44799;53.382;14.666;2023-03-17T06:08:43;21.20;75.50
59015;DHT22;44799;53.382;14.666;2023-03-17T06:11:09;18.60;74.20
59015;DHT22;44799;53.382;14.666;2023-03-17T06:13:34;21.20;75.70
59015;DHT22;44799;53.382;14.666;2023-03-17T06:16:01;21.10;75.60
59015;DHT22;44799;53.382;14.666;2023-03-17T06:18:27;19.00;72.00
59015;DHT22;44799;53.382;14.666;2023-03-17T06:20:53;18.80;72.50
59015;DHT22;44799;53.382;14.666;2023-03-17T06:23:19;18.50;74.40
59015;DHT22;44799;53.382;14.666;2023-03-17T06:25:45;20.50;75.40
59015;DHT22;44799;53.382;14.666;2023-03-17T06:28:10;19.50;73.90
59015;DHT22;44799;53.382;14.666;2023-03-17T06:37:54;19.40;75.70
59015;DHT22;44799;53.382;14.666;2023-03-17T06:42:45;21.10;76.40
59015;DHT22;44799;53.382;14.666;2023-03-17T06:45:11;18.90;71.10
59015;DHT22;44799;53.382;14.666;2023-03-17T06:47:37;20.30;76.00
59015;DHT22;44799;53.382;14.666;2023-03-17T06:50:04;20.80;76.20
59015;DHT22;44799;53.382;14.666;2023-03-17T06:52:30;20.00;75.30
59015;DHT22;44799;53.382;14.666;2023-03-17T06:57:21;18.70;75.00
59015;DHT22;44799;53.382;14.666;2023-03-17T06:59:47;21.30;74.30
59015;DHT22;44799;53.382;14.666;2023-03-17T07:07:05;20.30;74.90
59015;DHT22;44799;53.382;14.666;2023-03-17T07:09:32;20.20;74.90
59015;DHT22;44799;53.382;14.666;2023-03-17T07:11:59;19.60;74.50
59015;DHT22;44799;53.382;14.666;2023-03-17T07:14:32;20.80;75.20
59015;DHT22;44799;53.382;14.666;2023-03-17T07:16:58;20.40;74.50
59015;DHT22;44799;53.382;14.666;2023-03-17T07:19:24;19.60;74.10
59015;DHT22;44799;53.382;14.666;2023-03-17T07:21:51;20.60;74.50
59015;DHT22;44799;53.382;14.666;2023-03-17T07:26:43;20.70;69.00
59015;DHT22;44799;53.382;14.666;2023-03-17T07:34:03;20.20;67.50
59015;DHT22;44799;53.382;14.666;2023-03-17T07:48:39;19.80;69.70
59015;DHT22;44799;53.382;14.666;2023-03-17T07:53:33;20.20;69.00
59015;DHT22;44799;53.382;14.666;2023-03-17T07:55:59;20.20;68.90
59015;DHT22;44799;53.382;14.666;2023-03-17T07:58:25;20.40;69.10
59015;DHT22;44799;53.382;14.666;2023-03-17T08:00:51;20.50;68.80
59015;DHT22;44799;53.382;14.666;2023-03-17T08:03:16;20.10;68.10
59015;DHT22;44799;53.382;14.666;2023-03-17T08:05:43;20.40;68.10
59015;DHT22;44799;53.382;14.666;2023-03-17T08:08:09;20.30;68.60
59015;DHT22;44799;53.382;14.666;2023-03-17T08:10:35;19.50;64.90
59015;DHT22;44799;53.382;14.666;2023-03-17T08:13:01;20.30;69.10
59015;DHT22;44799;53.382;14.666;2023-03-17T08:15:27;20.50;69.30
59015;DHT22;44799;53.382;14.666;2023-03-17T08:30:03;20.50;68.40
59015;DHT22;44799;53.382;14.666;2023-03-17T08:32:29;20.40;67.50
59015;DHT22;44799;53.382;14.666;2023-03-17T08:37:20;20.70;70.00
59015;DHT22;44799;53.382;14.666;2023-03-17T08:39:46;20.60;70.00
59015;DHT22;44799;53.382;14.666;2023-03-17T08:42:12;20.30;70.00
59015;DHT22;44799;53.382;14.666;2023-03-17T08:44:37;20.60;70.20
59015;DHT22;44799;53.382;14.666;2023-03-17T08:47:03;20.10;70.00
59015;DHT22;44799;53.382;14.666;2023-03-17T08:51:55;20.60;70.20
59015;DHT22;44799;53.382;14.666;2023-03-17T08:54:21;20.80;70.60
59015;DHT22;44799;53.382;14.666;2023-03-17T08:56:47;20.30;70.40
59015;DHT22;44799;53.382;14.666;2023-03-17T09:04:06;20.20;70.30
59015;DHT22;44799;53.382;14.666;2023-03-17T09:06:33;20.60;68.70
59015;DHT22;44799;53.382;14.666;2023-03-17T09:08:59;20.70;71.00
59015;DHT22;44799;53.382;14.666;2023-03-17T09:11:26;20.70;71.40
59015;DHT22;44799;53.382;14.666;2023-03-17T09:13:52;20.30;68.30
59015;DHT22;44799;53.382;14.666;2023-03-17T09:16:19;20.70;71.20
59015;DHT22;44799;53.382;14.666;2023-03-17T09:18:45;20.00;71.00
59015;DHT22;44799;53.382;14.666;2023-03-17T09:33:20;20.70;73.80
59015;DHT22;44799;53.382;14.666;2023-03-17T09:45:37;20.40;73.40
59015;DHT22;44799;53.382;14.666;2023-03-17T09:52:55;20.40;73.40
59015;DHT22;44799;53.382;14.666;2023-03-17T09:55:23;20.20;73.40
59015;DHT22;44799;53.382;14.666;2023-03-17T09:57:50;20.30;73.90
59015;DHT22;44799;53.382;14.666;2023-03-17T10:07:39;20.40;73.30
59015;DHT22;44799;53.382;14.666;2023-03-17T10:10:13;20.30;71.20
59015;DHT22;44799;53.382;14.666;2023-03-17T10:15:20;20.30;73.30
59015;DHT22;44799;53.382;14.666;2023-03-17T10:22:47;20.40;72.80
59015;DHT22;44799;53.382;14.666;2023-03-17T10:27:39;20.50;72.90
59015;DHT22;44799;53.382;14.666;2023-03-17T10:30:15;20.50;72.80
59015;DHT22;44799;53.382;14.666;2023-03-17T10:35:08;20.20;72.40
59015;DHT22;44799;53.382;14.666;2023-03-17T10:37:35;20.50;72.80
59015;DHT22;44799;53.382;14.666;2023-03-17T10:40:01;20.30;72.40
59015;DHT22;44799;53.382;14.666;2023-03-17T10:45:37;20.70;72.60
59015;DHT22;44799;53.382;14.666;2023-03-17T10:47:48;20.20;72.60
59015;DHT22;44799;53.382;14.666;2023-03-17T10:50:29;20.80;72.70
59015;DHT22;44799;53.382;14.666;2023-03-17T10:55:27;20.30;72.40
59015;DHT22;44799;53.382;14.666;2023-03-17T11:00:19;20.50;72.20
59015;DHT22;44799;53.382;14.666;2023-03-17T11:02:55;21.90;99.90
59015;DHT22;44799;53.382;14.666;2023-03-17T11:05:25;23.30;58.60
59015;DHT22;44799;53.382;14.666;2023-03-17T11:08:09;17.70;49.60
59015;DHT22;44799;53.382;14.666;2023-03-17T11:10:40;13.90;54.20
59015;DHT22;44799;53.382;14.666;2023-03-17T11:13:06;11.70;58.30
59015;DHT22;44799;53.382;14.666;2023-03-17T11:15:57;11.00;60.40
59015;DHT22;44799;53.382;14.666;2023-03-17T11:18:37;10.50;62.10
59015;DHT22;44799;53.382;14.666;2023-03-17T11:21:14;9.60;62.40
59015;DHT22;44799;53.382;14.666;2023-03-17T11:23:52;10.40;63.60
59015;DHT22;44799;53.382;14.666;2023-03-17T11:26:44;10.40;63.40
59015;DHT22;44799;53.382;14.666;2023-03-17T11:29:29;10.50;63.90
59015;DHT22;44799;53.382;14.666;2023-03-17T11:38:18;10.40;63.60
59015;DHT22;44799;53.382;14.666;2023-03-17T11:43:40;10.50;64.20
59015;DHT22;44799;53.382;14.666;2023-03-17T11:49:09;10.60;64.40
59015;DHT22;44799;53.382;14.666;2023-03-17T11:54:29;10.70;63.50
59015;DHT22;44799;53.382;14.666;2023-03-17T11:57:00;10.70;62.60
59015;DHT22;44799;53.382;14.666;2023-03-17T11:59:49;10.70;63.10
59015;DHT22;44799;53.382;14.666;2023-03-17T12:02:37;10.70;63.80
59015;DHT22;44799;53.382;14.666;2023-03-17T12:05:08;10.60;63.80
59015;DHT22;44799;53.382;14.666;2023-03-17T12:07:48;10.60;65.20
59015;DHT22;44799;53.382;14.666;2023-03-17T12:10:24;10.70;64.70
59015;DHT22;44799;53.382;14.666;2023-03-17T12:13:04;10.90;63.60
59015;DHT22;44799;53.382;14.666;2023-03-17T12:16:08;11.00;63.90
59015;DHT22;44799;53.382;14.666;2023-03-17T12:21:39;11.00;60.80
59015;DHT22;44799;53.382;14.666;2023-03-17T12:24:25;11.00;62.00
59015;DHT22;44799;53.382;14.666;2023-03-17T12:27:10;11.10;62.80
59015;DHT22;44799;53.382;14.666;2023-03-17T12:30:00;11.20;62.00
59015;DHT22;44799;53.382;14.666;2023-03-17T12:34:58;11.20;61.50
59015;DHT22;44799;53.382;14.666;2023-03-17T12:37:26;11.10;61.70
59015;DHT22;44799;53.382;14.666;2023-03-17T12:40:15;11.10;62.20
59015;DHT22;44799;53.382;14.666;2023-03-17T12:42:56;11.20;62.10
59015;DHT22;44799;53.382;14.666;2023-03-17T12:48:42;11.20;61.90
59015;DHT22;44799;53.382;14.666;2023-03-17T12:53:56;11.20;61.80
59015;DHT22;44799;53.382;14.666;2023-03-17T12:56:27;11.30;62.40
59015;DHT22;44799;53.382;14.666;2023-03-17T12:59:05;11.40;62.60
59015;DHT22;44799;53.382;14.666;2023-03-17T13:01:42;11.50;62.40
59015;DHT22;44799;53.382;14.666;2023-03-17T13:07:31;11.70;63.30
59015;DHT22;44799;53.382;14.666;2023-03-17T13:11:58;11.90;61.70
59015;DHT22;44799;53.382;14.666;2023-03-17T13:17:28;12.10;61.60
59015;DHT22;44799;53.382;14.666;2023-03-17T13:25:31;12.20;60.50
59015;DHT22;44799;53.382;14.666;2023-03-17T13:28:23;12.10;60.60
59015;DHT22;44799;53.382;14.666;2023-03-17T13:33:42;12.20;59.70
59015;DHT22;44799;53.382;14.666;2023-03-17T13:36:26;12.30;60.30
59015;DHT22;44799;53.382;14.666;2023-03-17T13:41:51;12.50;61.10
59015;DHT22;44799;53.382;14.666;2023-03-17T13:44:36;12.60;60.90
59015;DHT22;44799;53.382;14.666;2023-03-17T13:49:50;12.60;60.40
59015;DHT22;44799;53.382;14.666;2023-03-17T13:52:33;12.60;60.10
59015;DHT22;44799;53.382;14.666;2023-03-17T14:00:39;12.40;59.50
59015;DHT22;44799;53.382;14.666;2023-03-17T14:05:52;12.40;59.30
59015;DHT22;44799;53.382;14.666;2023-03-17T14:08:31;12.30;59.80
59015;DHT22;44799;53.382;14.666;2023-03-17T14:11:01;12.10;60.90
59015;DHT22;44799;53.382;14.666;2023-03-17T14:13:42;12.10;60.70
59015;DHT22;44799;53.382;14.666;2023-03-17T14:16:25;12.00;61.00
59015;DHT22;44799;53.382;14.666;2023-03-17T14:19:15;12.00;61.00
59015;DHT22;44799;53.382;14.666;2023-03-17T14:21:42;12.00;60.20
59015;DHT22;44799;53.382;14.666;2023-03-17T14:24:31;11.90;60.60
59015;DHT22;44799;53.382;14.666;2023-03-17T14:27:05;11.90;61.20
59015;DHT22;44799;53.382;14.666;2023-03-17T14:29:33;12.00;61.40
59015;DHT22;44799;53.382;14.666;2023-03-17T14:32:13;11.90;61.00
59015;DHT22;44799;53.382;14.666;2023-03-17T14:35:10;12.00;61.10
59015;DHT22;44799;53.382;14.666;2023-03-17T14:37:37;12.00;62.50
59015;DHT22;44799;53.382;14.666;2023-03-17T14:40:03;12.00;61.70
59015;DHT22;44799;53.382;14.666;2023-03-17T14:42:30;11.90;61.10
59015;DHT22;44799;53.382;14.666;2023-03-17T14:45:06;11.90;61.30
59015;DHT22;44799;53.382;14.666;2023-03-17T14:47:38;11.80;61.90
59015;DHT22;44799;53.382;14.666;2023-03-17T14:50:13;11.80;61.90
59015;DHT22;44799;53.382;14.666;2023-03-17T14:52:40;11.80;61.80
59015;DHT22;44799;53.382;14.666;2023-03-17T14:55:11;11.80;62.50
59015;DHT22;44799;53.382;14.666;2023-03-17T14:57:37;11.70;62.80
59015;DHT22;44799;53.382;14.666;2023-03-17T15:00:30;11.80;63.00
59015;DHT22;44799;53.382;14.666;2023-03-17T15:02:58;11.80;63.30
59015;DHT22;44799;53.382;14.666;2023-03-17T15:07:53;11.80;64.80
59015;DHT22;44799;53.382;14.666;2023-03-17T15:10:26;11.80;63.90
59015;DHT22;44799;53.382;14.666;2023-03-17T15:13:04;11.70;64.30
59015;DHT22;44799;53.382;14.666;2023-03-17T15:15:31;11.70;65.00
59015;DHT22;44799;53.382;14.666;2023-03-17T15:18:02;11.70;64.90
59015;DHT22;44799;53.382;14.666;2023-03-17T15:20:28;11.70;64.80
59015;DHT22;44799;53.382;14.666;2023-03-17T15:23:19;11.70;65.10
59015;DHT22;44799;53.382;14.666;2023-03-17T15:25:55;11.70;65.10
59015;DHT22;44799;53.382;14.666;2023-03-17T15:28:22;11.70;64.90
59015;DHT22;44799;53.382;14.666;2023-03-17T15:30:49;11.70;64.10
59015;DHT22;44799;53.382;14.666;2023-03-17T15:33:20;11.60;64.60
59015;DHT22;44799;53.382;14.666;2023-03-17T15:35:46;11.60;64.70
59015;DHT22;44799;53.382;14.666;2023-03-17T15:38:12;11.60;66.10
59015;DHT22;44799;53.382;14.666;2023-03-17T15:40:38;11.50;65.10
59015;DHT22;44799;53.382;14.666;2023-03-17T15:43:03;11.40;65.20
59015;DHT22;44799;53.382;14.666;2023-03-17T15:45:29;11.50;64.80
59015;DHT22;44799;53.382;14.666;2023-03-17T15:47:55;11.40;65.10
59015;DHT22;44799;53.382;14.666;2023-03-17T15:50:22;11.40;64.80
59015;DHT22;44799;53.382;14.666;2023-03-17T15:52:48;11.40;66.50
59015;DHT22;44799;53.382;14.666;2023-03-17T15:55:21;11.40;66.10
59015;DHT22;44799;53.382;14.666;2023-03-17T15:57:47;11.40;66.10
59015;DHT22;44799;53.382;14.666;2023-03-17T16:00:17;11.40;66.90
59015;DHT22;44799;53.382;14.666;2023-03-17T16:02:43;11.40;67.70
59015;DHT22;44799;53.382;14.666;2023-03-17T16:05:30;11.30;67.00
59015;DHT22;44799;53.382;14.666;2023-03-17T16:07:55;11.30;67.40
59015;DHT22;44799;53.382;14.666;2023-03-17T16:12:47;11.20;68.80
59015;DHT22;44799;53.382;14.666;2023-03-17T16:15:17;11.20;67.60
59015;DHT22;44799;53.382;14.666;2023-03-17T16:17:44;11.10;68.20
59015;DHT22;44799;53.382;14.666;2023-03-17T16:22:44;11.10;68.80
59015;DHT22;44799;53.382;14.666;2023-03-17T16:27:43;10.90;69.20
59015;DHT22;44799;53.382;14.666;2023-03-17T16:30:24;10.80;69.30
59015;DHT22;44799;53.382;14.666;2023-03-17T16:32:50;10.80;71.00
59015;DHT22;44799;53.382;14.666;2023-03-17T16:35:22;10.70;70.30
59015;DHT22;44799;53.382;14.666;2023-03-17T16:37:49;10.70;70.60
59015;DHT22;44799;53.382;14.666;2023-03-17T16:42:47;10.60;69.90
59015;DHT22;44799;53.382;14.666;2023-03-17T16:45:33;10.50;70.60
59015;DHT22;44799;53.382;14.666;2023-03-17T16:48:01;10.40;71.10
59015;DHT22;44799;53.382;14.666;2023-03-17T16:50:29;10.40;72.50
59015;DHT22;44799;53.382;14.666;2023-03-17T16:52:55;10.30;72.60
59015;DHT22;44799;53.382;14.666;2023-03-17T16:55:21;10.30;71.50
59015;DHT22;44799;53.382;14.666;2023-03-17T16:57:50;10.40;70.60
59015;DHT22;44799;53.382;14.666;2023-03-17T17:00:20;10.30;71.40
59015;DHT22;44799;53.382;14.666;2023-03-17T17:02:46;10.20;71.40
59015;DHT22;44799;53.382;14.666;2023-03-17T17:05:12;10.10;72.50
59015;DHT22;44799;53.382;14.666;2023-03-17T17:07:38;10.10;72.10
59015;DHT22;44799;53.382;14.666;2023-03-17T17:10:04;10.10;72.20
59015;DHT22;44799;53.382;14.666;2023-03-17T17:12:30;10.00;72.20
59015;DHT22;44799;53.382;14.666;2023-03-17T17:14:56;10.00;73.20
59015;DHT22;44799;53.382;14.666;2023-03-17T17:17:21;10.00;72.00
59015;DHT22;44799;53.382;14.666;2023-03-17T17:19:47;10.00;72.10
59015;DHT22;44799;53.382;14.666;2023-03-17T17:22:12;9.90;72.80
59015;DHT22;44799;53.382;14.666;2023-03-17T17:24:38;9.80;73.40
59015;DHT22;44799;53.382;14.666;2023-03-17T17:27:04;9.70;73.80
59015;DHT22;44799;53.382;14.666;2023-03-17T17:29:29;9.70;74.20
59015;DHT22;44799;53.382;14.666;2023-03-17T17:31:55;9.70;73.80
59015;DHT22;44799;53.382;14.666;2023-03-17T17:34:21;9.60;75.30
59015;DHT22;44799;53.382;14.666;2023-03-17T17:36:47;9.60;74.30
59015;DHT22;44799;53.382;14.666;2023-03-17T17:39:13;9.60;73.60
59015;DHT22;44799;53.382;14.666;2023-03-17T17:41:38;9.50;74.50
59015;DHT22;44799;53.382;14.666;2023-03-17T17:44:04;9.40;75.40
59015;DHT22;44799;53.382;14.666;2023-03-17T17:46:30;9.40;75.00
59015;DHT22;44799;53.382;14.666;2023-03-17T17:48:57;9.40;74.80
59015;DHT22;44799;53.382;14.666;2023-03-17T17:51:22;9.40;75.80
59015;DHT22;44799;53.382;14.666;2023-03-17T17:53:48;9.40;76.30
59015;DHT22;44799;53.382;14.666;2023-03-17T17:56:15;9.30;76.50
59015;DHT22;44799;53.382;14.666;2023-03-17T17:58:40;9.30;76.30
59015;DHT22;44799;53.382;14.666;2023-03-17T18:01:07;9.20;76.40
59015;DHT22;44799;53.382;14.666;2023-03-17T18:03:33;9.20;76.00
59015;DHT22;44799;53.382;14.666;2023-03-17T18:05:59;9.20;76.10
59015;DHT22;44799;53.382;14.666;2023-03-17T18:08:25;9.20;77.10
59015;DHT22;44799;53.382;14.666;2023-03-17T18:10:51;9.10;76.50
59015;DHT22;44799;53.382;14.666;2023-03-17T18:13:17;9.10;77.10
59015;DHT22;44799;53.382;14.666;2023-03-17T18:15:43;9.00;78.10
59015;DHT22;44799;53.382;14.666;2023-03-17T18:18:09;8.90;78.30
59015;DHT22;44799;53.382;14.666;2023-03-17T18:20:35;8.90;78.60
59015;DHT22;44799;53.382;14.666;2023-03-17T18:23:00;8.90;80.90
59015;DHT22;44799;53.382;14.666;2023-03-17T18:25:26;8.80;78.90
59015;DHT22;44799;53.382;14.666;2023-03-17T18:27:52;8.90;77.60
59015;DHT22;44799;53.382;14.666;2023-03-17T18:30:20;8.80;79.10
59015;DHT22;44799;53.382;14.666;2023-03-17T18:32:47;8.80;79.40
59015;DHT22;44799;53.382;14.666;2023-03-17T18:35:16;8.90;78.30
59015;DHT22;44799;53.382;14.666;2023-03-17T18:37:44;8.80;78.50
59015;DHT22;44799;53.382;14.666;2023-03-17T18:40:10;8.80;78.70
59015;DHT22;44799;53.382;14.666;2023-03-17T18:42:36;8.80;78.60
59015;DHT22;44799;53.382;14.666;2023-03-17T18:45:02;8.70;79.30
59015;DHT22;44799;53.382;14.666;2023-03-17T18:47:31;8.70;79.30
59015;DHT22;44799;53.382;14.666;2023-03-17T18:49:57;8.70;78.50
59015;DHT22;44799;53.382;14.666;2023-03-17T18:52:29;8.70;79.60
59015;DHT22;44799;53.382;14.666;2023-03-17T18:54:55;8.70;79.00
59015;DHT22;44799;53.382;14.666;2023-03-17T18:57:21;8.70;80.70
59015;DHT22;44799;53.382;14.666;2023-03-17T18:59:46;8.60;80.60
59015;DHT22;44799;53.382;14.666;2023-03-17T19:02:12;8.60;79.60
59015;DHT22;44799;53.382;14.666;2023-03-17T19:04:38;8.50;80.10
59015;DHT22;44799;53.382;14.666;2023-03-17T19:07:10;8.50;80.10
59015;DHT22;44799;53.382;14.666;2023-03-17T19:09:36;8.50;80.30
59015;DHT22;44799;53.382;14.666;2023-03-17T19:12:02;8.50;80.70
59015;DHT22;44799;53.382;14.666;2023-03-17T19:14:29;8.40;79.60
59015;DHT22;44799;53.382;14.666;2023-03-17T19:16:54;8.40;80.10
59015;DHT22;44799;53.382;14.666;2023-03-17T19:19:21;8.40;80.10
59015;DHT22;44799;53.382;14.666;2023-03-17T19:21:47;8.30;81.20
59015;DHT22;44799;53.382;14.666;2023-03-17T19:24:14;8.30;81.10
59015;DHT22;44799;53.382;14.666;2023-03-17T19:26:40;8.40;80.20
59015;DHT22;44799;53.382;14.666;2023-03-17T19:29:06;8.30;80.50
59015;DHT22;44799;53.382;14.666;2023-03-17T19:31:34;8.30;80.70
59015;DHT22;44799;53.382;14.666;2023-03-17T19:34:06;8.30;81.60
59015;DHT22;44799;53.382;14.666;2023-03-17T19:36:36;8.20;83.10
59015;DHT22;44799;53.382;14.666;2023-03-17T19:39:04;8.10;81.80
59015;DHT22;44799;53.382;14.666;2023-03-17T19:41:29;8.10;83.80
59015;DHT22;44799;53.382;14.666;2023-03-17T19:43:58;8.00;86.90
59015;DHT22;44799;53.382;14.666;2023-03-17T19:46:25;8.00;82.90
59015;DHT22;44799;53.382;14.666;2023-03-17T19:48:51;7.90;83.30
59015;DHT22;44799;53.382;14.666;2023-03-17T19:51:18;7.90;85.40
59015;DHT22;44799;53.382;14.666;2023-03-17T19:53:43;7.80;85.70
59015;DHT22;44799;53.382;14.666;2023-03-17T19:56:09;7.80;84.60
59015;DHT22;44799;53.382;14.666;2023-03-17T19:58:36;7.80;83.60
59015;DHT22;44799;53.382;14.666;2023-03-17T20:01:03;7.80;84.00
59015;DHT22;44799;53.382;14.666;2023-03-17T20:03:29;7.90;83.90
59015;DHT22;44799;53.382;14.666;2023-03-17T20:05:56;7.80;83.30
59015;DHT22;44799;53.382;14.666;2023-03-17T20:08:22;7.80;83.20